Flight Track Log - Related Links

Times and Time Zones

All times are in EDT time to prevent confusion due to time zone crossing. See the N824MZ flight status page for this flight to view local times or setup timezone preferences in your user account.


Time Position Orientation Groundspeed Altitude Reporting Facility
EDT Latitude Longitude Course Direction KTS MPH feet Rate Location/Type
Sat 11:04:11 AM 37.3667 -121.9333 360° North 138 159 500  Level Northern Cal TRACON
Sat 11:05:11 AM 37.4167 -121.9333 360° North 148 170 1,800 1,263 Climbing Northern Cal TRACON
Sat 11:06:05 AM 37.4500 -121.9167 22° Northeast 147 169 2,900 1,056 Climbing Northern Cal TRACON
Sat 11:06:59 AM 37.4667 -121.8833 58° Northeast 155 178 3,700 895 Climbing Northern Cal TRACON
Sat 11:07:59 AM 37.5167 -121.8667 15° North 154 177 4,600 1,050 Climbing Northern Cal TRACON
Sat 11:08:59 AM 37.5500 -121.8333 38° Northeast 149 171 5,800 1,053 Climbing Northern Cal TRACON
Sat 11:09:53 AM 37.5833 -121.8167 22° Northeast 161 185 6,600 947 Climbing Northern Cal TRACON
Sat 11:10:53 AM 37.6167 -121.7833 38° Northeast 162 186 7,600 900 Climbing Northern Cal TRACON
Sat 11:11:53 AM 37.6333 -121.7167 72° East 177 204 8,400 684 Climbing Northern Cal TRACON
Sat 11:12:47 AM 37.6500 -121.6667 67° East 182 209 8,900 684 Climbing Northern Cal TRACON
Sat 11:13:47 AM 37.6833 -121.6167 50° Northeast 185 213 9,700 750 Climbing Northern Cal TRACON
Sat 11:14:47 AM 37.7000 -121.5500 72° East 188 216 10,400 626 Climbing Northern Cal TRACON
Sat 11:15:42 AM 37.7167 -121.5000 67° East 191 220 10,900 632 Climbing Northern Cal TRACON
Sat 11:17:19 AM 37.7517 -121.4000 66° East 196 226 12,000 684 Climbing Oakland Center
Sat 11:18:20 AM 37.7736 -121.3364 66° East 197 227 12,700 689 Climbing Oakland Center
Sat 11:19:21 AM 37.7958 -121.2739 66° East 198 228 13,400 683 Climbing Oakland Center
Sat 11:20:23 AM 37.8189 -121.2097 66° East 200 230 14,100 683 Climbing Oakland Center
Sat 11:21:24 AM 37.8478 -121.1497 59° Northeast 202 232 14,800 738 Climbing Oakland Center
Sat 11:22:25 AM 37.8950 -121.0869 46° Northeast 205 236 15,600 738 Climbing Oakland Center
Sat 11:23:26 AM 37.9336 -121.0331 48° Northeast 206 237 16,300 689 Climbing Oakland Center
Sat 11:24:27 AM 37.9817 -120.9978 30° Northeast 214 246 17,000 639 Climbing Oakland Center
Sat 11:25:28 AM 38.0344 -120.9794 15° North 213 245 17,600 732 Climbing Oakland Center
Sat 11:26:30 AM 38.0808 -120.9344 37° Northeast 213 245 18,500 634 Climbing Oakland Center
Sat 11:27:31 AM 38.1300 -120.8925 34° Northeast 213 245 18,900 393 Climbing Oakland Center
Sat 11:28:32 AM 38.1819 -120.8483 34° Northeast 221 254 19,300 443 Climbing Oakland Center
Sat 11:29:33 AM 38.2347 -120.8017 35° Northeast 228 262 19,800 443 Climbing Oakland Center
Sat 11:30:34 AM 38.2869 -120.7575 34° Northeast 228 262 20,200 488 Climbing Oakland Center
Sat 11:31:36 AM 38.3497 -120.7014 35° Northeast 228 262 20,800 341 Climbing Oakland Center
Sat 11:32:37 AM 38.4031 -120.6556 34° Northeast 230 265 20,900 98 Climbing Oakland Center
Sat 11:33:38 AM 38.4589 -120.6067 34° Northeast 241 277 21,000 49 Climbing Oakland Center
Sat 11:34:40 AM 38.5156 -120.5567 35° Northeast 247 284 21,000  Level Oakland Center
Sat 11:35:41 AM 38.5697 -120.5097 34° Northeast 238 274 21,000  Level Oakland Center
Sat 11:36:42 AM 38.6250 -120.4614 34° Northeast 240 276 21,000  Level Oakland Center
Sat 11:37:44 AM 38.6661 -120.3981 50° Northeast 235 270 21,000  Level Oakland Center
Sat 11:38:45 AM 38.7072 -120.3300 52° Northeast 237 273 21,000  Level Oakland Center
Sat 11:39:46 AM 38.7456 -120.2622 54° Northeast 236 272 21,000  Level Oakland Center
Sat 11:40:47 AM 38.7942 -120.1806 53° Northeast 240 276 21,000  Level Oakland Center
Sat 11:41:48 AM 38.8331 -120.1144 53° Northeast 234 269 21,000  Level Oakland Center
Sat 11:42:50 AM 38.8750 -120.0478 51° Northeast 237 273 21,000  Level Oakland Center
Sat 11:43:51 AM 38.9161 -119.9789 52° Northeast 241 277 21,000  Level Oakland Center
Sat 11:44:52 AM 38.9553 -119.9083 54° Northeast 240 276 21,000  Level Oakland Center
Sat 11:45:53 AM 38.9956 -119.8400 53° Northeast 240 276 21,000  Level Oakland Center
Sat 11:46:54 AM 39.0356 -119.7692 54° Northeast 245 282 21,000  Level Oakland Center
Sat 11:47:56 AM 39.0758 -119.7000 53° Northeast 243 280 21,000  Level Oakland Center
Sat 11:48:57 AM 39.1158 -119.6303 54° Northeast 242 278 21,000  Level Oakland Center
Sat 11:49:58 AM 39.1567 -119.5611 53° Northeast 244 281 21,000  Level Oakland Center
Sat 11:50:59 AM 39.1964 -119.4922 53° Northeast 241 277 21,000  Level Oakland Center
Sat 11:52:01 AM 39.2369 -119.4242 52° Northeast 239 275 21,000  Level Oakland Center
Sat 11:53:02 AM 39.2839 -119.3414 54° Northeast 239 275 21,000  Level Oakland Center
Sat 11:54:03 AM 39.3244 -119.2700 54° Northeast 243 280 21,000  Level Oakland Center
Sat 11:55:04 AM 39.3650 -119.2006 53° Northeast 243 280 21,000  Level Oakland Center
Sat 11:56:06 AM 39.4056 -119.1300 53° Northeast 243 280 21,000  Level Oakland Center
Sat 11:57:07 AM 39.4439 -119.0633 53° Northeast 240 276 21,000  Level Oakland Center
Sat 11:58:08 AM 39.4850 -118.9892 54° Northeast 242 278 21,000  Level Oakland Center
Sat 11:59:10 AM 39.5261 -118.9192 53° Northeast 242 278 21,000  Level Oakland Center
Sat 12:00:11 PM 39.5656 -118.8475 54° Northeast 242 278 21,000  Level Oakland Center
Sat 12:01:12 PM 39.6067 -118.7764 53° Northeast 244 281 21,000  Level Oakland Center
Sat 12:02:13 PM 39.6467 -118.7053 54° Northeast 243 280 21,000  Level Oakland Center
Sat 12:03:15 PM 39.6867 -118.6342 54° Northeast 242 278 21,000  Level Oakland Center
Sat 12:04:16 PM 39.7269 -118.5633 54° Northeast 243 280 21,000  Level Oakland Center
Sat 12:05:17 PM 39.7661 -118.4922 54° Northeast 242 278 21,000  Level Oakland Center
Sat 12:06:19 PM 39.8056 -118.4214 54° Northeast 241 277 21,000  Level Oakland Center
Sat 12:07:20 PM 39.8528 -118.3364 54° Northeast 240 276 21,000  Level Oakland Center
Sat 12:08:21 PM 39.8928 -118.2642 54° Northeast 245 282 21,000  Level Oakland Center
Sat 12:09:22 PM 39.9331 -118.1925 54° Northeast 246 283 21,000  Level Oakland Center
Sat 12:10:24 PM 39.9728 -118.1206 54° Northeast 245 282 21,000  Level Oakland Center
Sat 12:11:25 PM 40.0122 -118.0497 54° Northeast 242 278 21,000  Level Oakland Center
Sat 12:12:26 PM 40.0522 -117.9775 54° Northeast 245 282 21,000  Level Oakland Center
Sat 12:13:28 PM 40.0914 -117.9056 55° Northeast 243 280 21,000  Level Oakland Center
Sat 12:14:29 PM 40.1317 -117.8344 53° Northeast 243 280 21,000  Level Oakland Center
Sat 12:15:30 PM 40.1706 -117.7606 55° Northeast 246 283 21,000  Level Oakland Center
Sat 12:16:32 PM 40.2106 -117.6883 54° Northeast 245 282 21,000  Level Oakland Center
Sat 12:17:33 PM 40.2556 -117.6069 54° Northeast 248 285 21,000  Level Oakland Center
Sat 12:17:52 PM 40.2681 -117.5831 56° Northeast 248 285 21,000  Level Salt Lake Center
Sat 12:18:54 PM 40.3067 -117.5119 55° Northeast 250 288 21,000  Level Salt Lake Center
Sat 12:19:56 PM 40.3517 -117.4297 54° Northeast 248 285 21,000  Level Salt Lake Center
Sat 12:20:58 PM 40.3903 -117.3583 55° Northeast 249 287 21,000  Level Salt Lake Center
Sat 12:22:00 PM 40.4356 -117.2750 54° Northeast 250 288 21,000  Level Salt Lake Center
Sat 12:23:02 PM 40.4742 -117.2039 54° Northeast 249 287 21,000  Level Salt Lake Center
Sat 12:24:05 PM 40.5194 -117.1197 55° Northeast 250 288 21,000  Level Salt Lake Center
Sat 12:25:07 PM 40.5578 -117.0467 55° Northeast 251 289 21,000  Level Salt Lake Center
Sat 12:26:09 PM 40.5969 -116.9747 54° Northeast 250 288 21,000  Level Salt Lake Center
Sat 12:27:11 PM 40.6422 -116.8897 55° Northeast 252 290 21,000  Level Salt Lake Center
Sat 12:28:13 PM 40.6806 -116.8172 55° Northeast 251 289 21,000  Level Salt Lake Center
Sat 12:29:15 PM 40.7256 -116.7331 55° Northeast 251 289 21,000  Level Salt Lake Center
Sat 12:30:17 PM 40.7636 -116.6606 55° Northeast 250 288 21,000  Level Salt Lake Center
Sat 12:31:19 PM 40.8083 -116.5761 55° Northeast 250 288 21,000  Level Salt Lake Center
Sat 12:32:21 PM 40.8467 -116.5028 55° Northeast 252 290 21,000  Level Salt Lake Center
Sat 12:33:23 PM 40.8917 -116.4172 55° Northeast 253 291 21,000  Level Salt Lake Center
Sat 12:34:25 PM 40.9297 -116.3442 55° Northeast 252 290 21,000  Level Salt Lake Center
Sat 12:35:27 PM 40.9683 -116.2706 55° Northeast 253 291 21,000  Level Salt Lake Center
Sat 12:36:29 PM 41.0133 -116.1847 55° Northeast 254 292 21,000  Level Salt Lake Center
Sat 12:37:31 PM 41.0519 -116.1100 56° Northeast 255 293 21,000  Level Salt Lake Center
Sat 12:38:33 PM 41.0961 -116.0211 57° Northeast 257 296 21,000  Level Salt Lake Center
Sat 12:39:35 PM 41.1347 -115.9469 55° Northeast 256 295 21,000  Level Salt Lake Center
Sat 12:40:36 PM 41.1808 -115.8600 55° Northeast 257 296 21,000  Level Salt Lake Center
Sat 12:41:38 PM 41.2181 -115.7839 57° Northeast 257 296 21,000  Level Salt Lake Center
Sat 12:42:40 PM 41.2631 -115.6964 56° Northeast 257 296 21,000  Level Salt Lake Center
Sat 12:43:42 PM 41.3019 -115.6214 55° Northeast 256 295 21,000  Level Salt Lake Center
Sat 12:44:44 PM 41.3472 -115.5342 55° Northeast 256 295 21,000  Level Salt Lake Center
Sat 12:45:46 PM 41.3850 -115.4572 57° Northeast 259 298 21,000  Level Salt Lake Center
Sat 12:46:48 PM 41.4236 -115.3822 56° Northeast 257 296 21,000  Level Salt Lake Center
Sat 12:47:50 PM 41.4681 -115.2939 56° Northeast 257 296 21,000  Level Salt Lake Center
Sat 12:48:52 PM 41.5064 -115.2178 56° Northeast 257 296 21,000  Level Salt Lake Center
Sat 12:49:54 PM 41.5511 -115.1292 56° Northeast 258 297 21,000  Level Salt Lake Center
Sat 12:50:55 PM 41.5892 -115.0533 56° Northeast 258 297 21,000  Level Salt Lake Center
Sat 12:51:57 PM 41.6336 -114.9636 56° Northeast 259 298 21,000  Level Salt Lake Center
Sat 12:52:59 PM 41.6719 -114.8878 56° Northeast 256 295 21,000  Level Salt Lake Center
Sat 12:54:01 PM 41.7167 -114.7989 56° Northeast 258 297 21,000  Level Salt Lake Center
Sat 12:55:03 PM 41.7544 -114.7217 57° Northeast 259 298 21,000  Level Salt Lake Center
Sat 12:56:05 PM 41.7925 -114.6444 57° Northeast 259 298 21,000  Level Salt Lake Center
Sat 12:57:06 PM 41.8364 -114.5564 56° Northeast 256 295 21,000  Level Salt Lake Center
Sat 12:58:08 PM 41.8761 -114.4767 56° Northeast 258 297 21,000  Level Salt Lake Center
Sat 12:59:10 PM 41.9153 -114.3953 57° Northeast 259 298 21,000  Level Salt Lake Center
Sat 01:00:12 PM 41.9539 -114.3150 57° Northeast 258 297 21,000  Level Salt Lake Center
Sat 01:01:14 PM 41.9928 -114.2350 57° Northeast 256 295 21,000  Level Salt Lake Center
Sat 01:02:16 PM 42.0414 -114.1369 56° Northeast 261 300 21,000  Level Salt Lake Center
Sat 01:03:17 PM 42.0808 -114.0569 56° Northeast 257 296 21,000  Level Salt Lake Center
Sat 01:04:19 PM 42.1192 -113.9747 58° Northeast 257 296 21,000  Level Salt Lake Center
Sat 01:05:21 PM 42.1597 -113.8936 56° Northeast 260 299 21,000  Level Salt Lake Center
Sat 01:06:23 PM 42.1989 -113.8119 57° Northeast 260 299 21,000  Level Salt Lake Center
Sat 01:07:25 PM 42.2375 -113.7311 57° Northeast 256 295 21,000  Level Salt Lake Center
Sat 01:08:26 PM 42.2758 -113.6500 57° Northeast 256 295 21,000  Level Salt Lake Center
Sat 01:09:28 PM 42.3231 -113.5525 57° Northeast 257 296 21,000  Level Salt Lake Center
Sat 01:10:30 PM 42.3611 -113.4722 57° Northeast 254 292 21,000  Level Salt Lake Center
Sat 01:11:32 PM 42.4011 -113.3897 57° Northeast 260 299 21,000  Level Salt Lake Center
Sat 01:12:34 PM 42.4378 -113.3089 58° Northeast 255 293 21,000  Level Salt Lake Center
Sat 01:13:35 PM 42.4767 -113.2267 57° Northeast 258 297 21,000  Level Salt Lake Center
Sat 01:14:37 PM 42.5161 -113.1442 57° Northeast 261 300 21,000  Level Salt Lake Center
Sat 01:15:39 PM 42.5544 -113.0639 57° Northeast 256 295 21,000  Level Salt Lake Center
Sat 01:16:41 PM 42.6003 -112.9633 58° Northeast 259 298 21,000  Level Salt Lake Center
Sat 01:17:43 PM 42.6389 -112.8814 57° Northeast 259 298 21,000  Level Salt Lake Center
Sat 01:18:44 PM 42.6775 -112.7978 58° Northeast 260 299 21,000  Level Salt Lake Center
Sat 01:19:46 PM 42.7153 -112.7186 57° Northeast 259 298 21,000  Level Salt Lake Center
Sat 01:20:48 PM 42.7581 -112.6244 58° Northeast 261 300 21,000  Level Salt Lake Center
Sat 01:21:50 PM 42.7953 -112.5450 57° Northeast 261 300 21,000  Level Salt Lake Center
Sat 01:22:52 PM 42.8381 -112.4500 58° Northeast 263 303 21,000  Level Salt Lake Center
Sat 01:23:54 PM 42.8750 -112.3700 58° Northeast 262 302 21,000  Level Salt Lake Center
Sat 01:24:55 PM 42.9181 -112.2792 57° Northeast 258 297 21,000  Level Salt Lake Center
Sat 01:25:57 PM 42.9561 -112.1994 57° Northeast 263 303 21,000  Level Salt Lake Center
Sat 01:26:59 PM 42.9986 -112.1044 59° Northeast 264 304 21,000  Level Salt Lake Center
Sat 01:28:01 PM 43.0356 -112.0225 58° Northeast 265 305 21,000  Level Salt Lake Center
Sat 01:29:03 PM 43.0722 -111.9425 58° Northeast 261 300 21,000 -242 Level Salt Lake Center
Sat 01:30:05 PM 43.1161 -111.8439 59° Northeast 271 312 20,500 -677 Descending Salt Lake Center
Sat 01:31:07 PM 43.1558 -111.7589 57° Northeast 277 319 19,600 -1,113 Descending Salt Lake Center
Sat 01:32:09 PM 43.2017 -111.6550 59° Northeast 284 327 18,200 -1,210 Descending Salt Lake Center
Sat 01:33:11 PM 43.2422 -111.5653 58° Northeast 288 331 17,100 -1,220 Descending Salt Lake Center
Sat 01:34:12 PM 43.2883 -111.4644 58° Northeast 285 328 15,700 -1,317 Descending Salt Lake Center
Sat 01:35:14 PM 43.3264 -111.3783 59° Northeast 281 323 14,400 -823 Descending Salt Lake Center
Sat 01:36:16 PM 43.3686 -111.2817 59° Northeast 274 315 14,000 -242 Descending Salt Lake Center
Sat 01:37:18 PM 43.3975 -111.2206 57° Northeast 256 295 13,900  Descending Salt Lake Center
Sat 01:38:20 PM 43.4331 -111.1308 61° Northeast 228 262 14,000  Climbing Salt Lake Center
Sat 01:39:22 PM 43.4531 -111.0519 71° East 221 254 13,900  Descending Salt Lake Center
Sat 01:40:24 PM 43.4719 -110.9717 72° East 220 253 14,000 97 Climbing Salt Lake Center

Login

Don't have an account? Register now (free) for customized features, flight alerts, and more!